Time;durP1;ratioP1;P1;durP2;ratioP2;P2;SDS_P1;SDS_P2;PMS_P1;PMS_P2;Temp;Humidity;BMP_temperature;BMP_pressure;BME280_temperature;BME280_humidity;BME280_pressure;Samples;Min_cycle;Max_cycle;Signal;HPM_P1;HPM_P2
2021/08/31 00:02:59;;;;;;;14.00;4.72;;;;;;;13.44;96.85;98185.81;2232317;80;21628;-68
2021/08/31 00:06:00;;;;;;;12.95;4.37;;;;;;;13.42;96.95;98190.35;2232271;80;21508;-73
2021/08/31 00:09:02;;;;;;;12.60;4.03;;;;;;;13.36;97.57;98207.53;2232257;80;21010;-69
2021/08/31 00:12:03;;;;;;;14.63;4.07;;;;;;;13.32;98.13;98199.00;2232266;80;21059;-68
2021/08/31 00:15:05;;;;;;;9.67;3.50;;;;;;;13.27;98.62;98191.12;2232259;80;21456;-68
2021/08/31 00:18:06;;;;;;;11.20;3.52;;;;;;;13.27;98.37;98205.60;2232188;80;21008;-69
2021/08/31 00:21:08;;;;;;;9.30;3.00;;;;;;;13.24;97.96;98205.86;2232504;80;20990;-68
2021/08/31 00:24:09;;;;;;;8.98;3.12;;;;;;;13.19;97.83;98204.92;2231816;80;21075;-69
2021/08/31 00:27:11;;;;;;;9.17;3.00;;;;;;;13.16;97.83;98203.37;2232212;80;20975;-69
2021/08/31 00:30:12;;;;;;;8.73;2.77;;;;;;;13.16;97.91;98206.50;2232242;80;21464;-68
2021/08/31 00:33:14;;;;;;;8.13;2.97;;;;;;;13.14;98.06;98197.38;2232285;79;21015;-68
2021/08/31 00:36:15;;;;;;;10.77;3.03;;;;;;;13.12;97.90;98193.22;2232199;79;21463;-68
2021/08/31 00:39:16;;;;;;;9.55;3.50;;;;;;;13.08;97.89;98188.67;2232188;79;21162;-69
2021/08/31 00:42:18;;;;;;;8.75;3.02;;;;;;;13.08;97.90;98190.48;2232241;80;21007;-68
2021/08/31 00:45:19;;;;;;;11.23;3.33;;;;;;;13.05;98.19;98190.24;2232587;80;20972;-72
2021/08/31 00:48:22;;;;;;;10.73;3.47;;;;;;;13.05;98.26;98195.51;2232236;80;21034;-73
2021/08/31 00:51:23;;;;;;;11.15;3.45;;;;;;;13.05;97.92;98185.47;2232247;80;21030;-69
2021/08/31 00:54:25;;;;;;;13.40;3.90;;;;;;;13.03;98.15;98184.28;2232234;80;21027;-69
2021/08/31 00:57:26;;;;;;;13.40;4.45;;;;;;;13.04;98.07;98185.10;2232427;79;20961;-72
2021/08/31 01:00:28;;;;;;;11.57;4.03;;;;;;;13.04;98.15;98187.73;2232247;79;21008;-68
2021/08/31 01:03:29;;;;;;;12.63;3.80;;;;;;;13.07;98.02;98182.22;2232190;80;21514;-70
2021/08/31 01:06:30;;;;;;;14.53;4.30;;;;;;;13.07;97.87;98179.58;2232168;80;20967;-72
2021/08/31 01:09:32;;;;;;;15.98;4.33;;;;;;;13.04;97.99;98189.88;2232186;80;21562;-69
2021/08/31 01:12:33;;;;;;;13.45;4.12;;;;;;;13.03;97.82;98185.59;2232318;80;20945;-68
2021/08/31 01:15:35;;;;;;;14.13;4.03;;;;;;;13.04;97.85;98185.93;2232173;80;21008;-68
2021/08/31 01:18:36;;;;;;;18.27;4.43;;;;;;;13.06;97.52;98184.48;2231827;80;21019;-72
2021/08/31 01:21:38;;;;;;;14.23;4.53;;;;;;;13.10;97.70;98189.40;2232225;80;20940;-72
2021/08/31 01:24:39;;;;;;;15.45;4.85;;;;;;;13.11;97.43;98186.27;2232173;80;21749;-68
2021/08/31 01:27:41;;;;;;;15.83;5.10;;;;;;;13.12;97.63;98186.14;2232299;80;20940;-72
2021/08/31 01:30:42;;;;;;;16.37;5.27;;;;;;;13.15;97.42;98181.94;2232181;80;20976;-72
2021/08/31 01:33:43;;;;;;;17.83;5.37;;;;;;;13.20;97.50;98179.42;2232166;80;20952;-69
2021/08/31 01:36:45;;;;;;;16.32;4.92;;;;;;;13.28;97.55;98173.05;2232031;80;21055;-69
2021/08/31 01:39:47;;;;;;;17.15;5.28;;;;;;;13.36;97.31;98160.12;2231639;79;21527;-72
2021/08/31 01:42:48;;;;;;;19.33;5.67;;;;;;;13.43;96.93;98167.01;2232217;79;20976;-73
2021/08/31 01:45:49;;;;;;;19.62;5.80;;;;;;;13.48;96.69;98163.03;2231833;80;21467;-73
2021/08/31 01:48:51;;;;;;;17.67;5.65;;;;;;;13.54;96.42;98159.55;2232268;80;20965;-68
2021/08/31 01:51:52;;;;;;;17.63;5.63;;;;;;;13.57;96.17;98149.56;2232151;80;21002;-72
2021/08/31 01:54:54;;;;;;;18.00;6.03;;;;;;;13.57;95.93;98148.74;2232160;80;21007;-69
2021/08/31 01:57:55;;;;;;;17.65;5.92;;;;;;;13.59;95.73;98144.16;2232109;80;20996;-72
2021/08/31 02:00:56;;;;;;;18.25;5.90;;;;;;;13.60;95.46;98141.89;2232157;80;21458;-71
2021/08/31 02:03:58;;;;;;;18.67;6.03;;;;;;;13.57;95.45;98136.88;2232116;80;20988;-72
2021/08/31 02:07:00;;;;;;;19.00;5.80;;;;;;;13.63;95.63;98133.72;2232112;80;21028;-72
2021/08/31 02:10:01;;;;;;;17.98;6.15;;;;;;;13.71;95.50;98135.23;2232176;80;21003;-69
2021/08/31 02:13:03;;;;;;;19.55;6.35;;;;;;;13.75;95.37;98135.33;2232157;80;21002;-71
2021/08/31 02:16:04;;;;;;;19.70;6.43;;;;;;;13.77;95.20;98130.75;2232264;80;20995;-68
2021/08/31 02:19:06;;;;;;;18.80;6.47;;;;;;;13.78;95.10;98131.11;2232159;80;20933;-68
2021/08/31 02:22:07;;;;;;;19.10;6.35;;;;;;;13.76;95.12;98129.07;2232265;80;22060;-70
2021/08/31 02:25:09;;;;;;;18.90;6.62;;;;;;;13.78;95.09;98128.97;2232181;80;20928;-72
2021/08/31 02:28:10;;;;;;;18.07;6.40;;;;;;;13.73;94.97;98129.83;2232132;80;21459;-72
2021/08/31 02:31:11;;;;;;;19.23;6.40;;;;;;;13.65;95.05;98139.72;2232055;80;21007;-69
2021/08/31 02:34:13;;;;;;;19.37;6.03;;;;;;;13.61;95.31;98135.67;2232161;80;20980;-68
2021/08/31 02:37:15;;;;;;;20.62;6.83;;;;;;;13.54;95.65;98137.97;2231599;80;21023;-68
2021/08/31 02:40:16;;;;;;;19.30;6.57;;;;;;;13.61;95.90;98140.44;2232053;79;21000;-71
2021/08/31 02:43:18;;;;;;;19.97;6.40;;;;;;;13.61;95.80;98133.85;2232129;80;20955;-69
2021/08/31 02:46:19;;;;;;;19.40;6.95;;;;;;;13.61;95.92;98135.17;2232102;80;21017;-71
2021/08/31 02:49:21;;;;;;;18.73;6.12;;;;;;;13.57;96.15;98142.16;2232155;80;20960;-69
2021/08/31 02:52:22;;;;;;;18.87;6.43;;;;;;;13.58;95.80;98126.21;2232146;80;21474;-73
2021/08/31 02:55:23;;;;;;;19.67;6.30;;;;;;;13.55;96.16;98140.97;2232259;79;21023;-70
2021/08/31 02:58:25;;;;;;;17.73;6.20;;;;;;;13.47;96.15;98138.13;2232024;80;21015;-70
2021/08/31 03:01:30;;;;;;;16.60;5.80;;;;;;;13.42;96.74;98140.30;2232357;80;20960;-69
2021/08/31 03:04:30;;;;;;;16.25;5.50;;;;;;;13.35;96.90;98136.05;2212385;80;20996;-73
2021/08/31 03:07:31;;;;;;;17.65;5.60;;;;;;;13.36;96.77;98135.09;2232189;80;20952;-70
2021/08/31 03:10:32;;;;;;;16.47;5.47;;;;;;;13.32;97.06;98138.91;2232356;80;21016;-69
2021/08/31 03:13:34;;;;;;;17.17;5.67;;;;;;;13.29;97.23;98138.69;2232094;80;21522;-68
2021/08/31 03:16:36;;;;;;;17.07;5.80;;;;;;;13.28;97.03;98129.59;2232303;80;21040;-68
2021/08/31 03:19:39;;;;;;;17.70;5.90;;;;;;;13.30;96.92;98129.83;2232202;80;20971;-71
2021/08/31 03:22:41;;;;;;;17.05;5.40;;;;;;;13.33;96.65;98124.77;2231984;80;20996;-72
2021/08/31 03:25:42;;;;;;;17.33;6.13;;;;;;;13.33;96.71;98120.81;2232256;80;21444;-72
2021/08/31 03:28:44;;;;;;;17.03;5.77;;;;;;;13.31;96.99;98121.43;2232028;79;21007;-69
2021/08/31 03:31:45;;;;;;;17.13;5.97;;;;;;;13.28;97.07;98126.47;2232409;80;21451;-69
2021/08/31 03:34:47;;;;;;;17.53;5.77;;;;;;;13.30;97.03;98126.34;2232558;80;20959;-71
2021/08/31 03:37:48;;;;;;;18.17;5.90;;;;;;;13.30;97.09;98125.02;2232027;80;20977;-72
2021/08/31 03:40:49;;;;;;;17.77;5.97;;;;;;;13.32;97.15;98127.89;2232336;80;21044;-71
2021/08/31 03:43:51;;;;;;;18.07;6.33;;;;;;;13.34;97.14;98123.34;2232433;80;20930;-72
2021/08/31 03:46:52;;;;;;;19.30;6.60;;;;;;;13.36;97.16;98128.97;2232566;79;20932;-69
2021/08/31 03:49:54;;;;;;;17.75;6.30;;;;;;;13.34;97.39;98125.13;2231967;80;21083;-69
2021/08/31 03:52:56;;;;;;;19.20;6.73;;;;;;;13.32;97.34;98121.30;2232337;80;21499;-68
2021/08/31 03:55:57;;;;;;;18.25;6.50;;;;;;;13.38;97.24;98128.38;2232432;79;21291;-73
2021/08/31 03:58:58;;;;;;;17.23;6.20;;;;;;;13.37;97.54;98132.80;2232052;80;21028;-71
2021/08/31 04:02:00;;;;;;;20.73;6.47;;;;;;;13.35;97.37;98132.10;2232652;80;20971;-68
2021/08/31 04:05:01;;;;;;;18.30;6.05;;;;;;;13.36;97.47;98131.15;2232407;80;21246;-71
2021/08/31 04:08:03;;;;;;;19.03;6.30;;;;;;;13.37;97.49;98122.75;2232505;80;20960;-68
2021/08/31 04:11:04;;;;;;;20.23;5.97;;;;;;;13.42;97.42;98128.45;2232379;80;21027;-68
2021/08/31 04:14:06;;;;;;;20.32;6.60;;;;;;;13.49;97.51;98129.14;2232404;80;21456;-71
2021/08/31 04:17:07;;;;;;;18.57;6.10;;;;;;;13.56;97.32;98130.80;2232477;79;20956;-71
2021/08/31 04:20:08;;;;;;;16.87;5.10;;;;;;;13.60;97.19;98128.72;2232396;80;21007;-72
2021/08/31 04:23:10;;;;;;;16.30;4.95;;;;;;;13.66;97.14;98129.51;2232334;80;21113;-72
2021/08/31 04:26:11;;;;;;;17.43;5.60;;;;;;;13.74;97.08;98126.23;2232351;80;20972;-72
2021/08/31 04:29:13;;;;;;;16.62;5.28;;;;;;;13.81;96.96;98119.48;2232400;80;20952;-71
2021/08/31 04:32:14;;;;;;;17.30;5.57;;;;;;;13.86;96.59;98128.66;2232354;80;21048;-72
2021/08/31 04:35:15;;;;;;;14.63;5.00;;;;;;;13.89;96.48;98125.40;2232334;80;21423;-71
2021/08/31 04:38:17;;;;;;;15.07;4.83;;;;;;;13.95;96.69;98127.50;2231930;79;20949;-68
2021/08/31 04:41:18;;;;;;;13.62;4.80;;;;;;;14.04;96.34;98121.45;2232279;80;20987;-71
2021/08/31 04:44:20;;;;;;;14.73;4.80;;;;;;;14.06;95.76;98122.14;2232505;80;20961;-72
2021/08/31 04:47:21;;;;;;;17.70;5.50;;;;;;;14.06;95.91;98116.04;2232336;80;20972;-72
2021/08/31 04:50:23;;;;;;;15.70;5.10;;;;;;;14.14;95.89;98113.58;2232332;80;21042;-69
2021/08/31 04:53:24;;;;;;;16.65;5.50;;;;;;;14.21;95.44;98124.77;2232335;80;21709;-68
2021/08/31 04:56:26;;;;;;;14.33;4.50;;;;;;;14.23;95.20;98128.59;2232276;80;21471;-68
2021/08/31 04:59:27;;;;;;;15.80;5.47;;;;;;;14.09;94.76;98133.73;2232355;80;20957;-68
2021/08/31 05:02:31;;;;;;;15.63;5.37;;;;;;;14.02;95.49;98140.04;2232977;80;21494;-72
2021/08/31 05:05:32;;;;;;;15.20;4.90;;;;;;;13.96;95.69;98139.72;2212561;80;21632;-72
2021/08/31 05:08:33;;;;;;;11.90;4.33;;;;;;;13.91;95.84;98136.66;2232315;80;20996;-73
2021/08/31 05:11:35;;;;;;;13.70;4.27;;;;;;;13.84;96.20;98135.02;2232352;79;21435;-70
2021/08/31 05:14:36;;;;;;;11.27;3.87;;;;;;;13.81;96.33;98134.80;2232458;80;21004;-70
2021/08/31 05:17:38;;;;;;;12.43;4.17;;;;;;;13.82;96.33;98141.75;2232212;80;21051;-70
2021/08/31 05:20:39;;;;;;;13.50;4.30;;;;;;;13.84;96.30;98137.66;2232440;80;20960;-72
2021/08/31 05:23:40;;;;;;;11.87;4.10;;;;;;;13.84;96.25;98131.07;2232324;80;20967;-73
2021/08/31 05:26:42;;;;;;;13.20;4.57;;;;;;;13.88;96.36;98131.63;2232439;80;21011;-73
2021/08/31 05:29:43;;;;;;;11.67;4.00;;;;;;;13.88;96.26;98127.21;2232346;79;20976;-70
2021/08/31 05:32:45;;;;;;;9.70;3.70;;;;;;;13.89;96.22;98123.58;2232306;80;21479;-70
2021/08/31 05:35:46;;;;;;;10.57;3.70;;;;;;;13.95;96.23;98113.00;2232262;80;20972;-69
2021/08/31 05:38:48;;;;;;;13.08;4.12;;;;;;;14.05;96.11;98125.77;2231915;80;21508;-69
2021/08/31 05:41:49;;;;;;;13.73;4.10;;;;;;;14.09;95.94;98142.96;2235827;80;20963;-73
2021/08/31 05:44:51;;;;;;;13.03;4.67;;;;;;;14.12;95.81;98135.27;2235396;80;21007;-73
2021/08/31 05:47:52;;;;;;;10.90;3.97;;;;;;;14.11;95.66;98128.35;2235785;79;20945;-70
2021/08/31 05:50:53;;;;;;;9.97;3.73;;;;;;;14.13;95.54;98140.91;2235606;80;20977;-70
2021/08/31 05:53:55;;;;;;;10.63;3.60;;;;;;;14.13;95.65;98135.14;2235620;80;21538;-69
2021/08/31 05:56:56;;;;;;;10.63;3.50;;;;;;;14.15;95.70;98138.50;2235616;80;21047;-69
2021/08/31 05:59:58;;;;;;;9.47;3.10;;;;;;;14.20;95.29;98136.27;2235652;80;21519;-73
2021/08/31 06:02:59;;;;;;;9.40;3.00;;;;;;;14.27;94.76;98141.86;2235767;80;20932;-72
2021/08/31 06:06:01;;;;;;;9.17;3.27;;;;;;;14.21;94.58;98147.19;2235606;80;20967;-73
2021/08/31 06:09:02;;;;;;;9.17;2.57;;;;;;;14.21;95.07;98143.73;2235767;80;20963;-70
2021/08/31 06:12:03;;;;;;;6.63;2.27;;;;;;;14.30;94.65;98137.63;2235532;80;21105;-69
2021/08/31 06:15:05;;;;;;;5.13;1.47;;;;;;;14.35;93.73;98133.27;2235782;80;20924;-69
2021/08/31 06:18:06;;;;;;;4.43;1.67;;;;;;;14.36;93.60;98119.94;2235544;80;21648;-69
2021/08/31 06:21:08;;;;;;;4.73;2.07;;;;;;;14.40;93.61;98097.27;2235612;80;21428;-68
2021/08/31 06:24:09;;;;;;;3.47;1.40;;;;;;;14.38;93.62;98109.28;2235628;80;21071;-70
2021/08/31 06:27:11;;;;;;;6.13;1.70;;;;;;;14.38;93.48;98129.07;2235576;80;21071;-72
2021/08/31 06:30:12;;;;;;;3.97;1.80;;;;;;;14.36;93.24;98132.31;2235728;80;20948;-72
2021/08/31 06:33:13;;;;;;;7.73;2.80;;;;;;;14.35;93.66;98132.80;2235592;80;21003;-69
2021/08/31 06:36:15;;;;;;;6.83;2.80;;;;;;;14.38;93.38;98133.03;2235666;80;20987;-69
2021/08/31 06:39:17;;;;;;;5.67;1.98;;;;;;;14.40;93.49;98132.39;2234783;79;21487;-68
2021/08/31 06:42:19;;;;;;;4.87;2.30;;;;;;;14.41;92.91;98131.44;2232248;80;20996;-72
2021/08/31 06:45:21;;;;;;;5.28;2.33;;;;;;;14.36;93.48;98129.67;2231991;80;21458;-70
2021/08/31 06:48:22;;;;;;;6.03;1.70;;;;;;;14.36;93.29;98130.49;2232207;80;20933;-72
2021/08/31 06:51:23;;;;;;;5.83;2.10;;;;;;;14.30;92.80;98131.53;2232113;80;21031;-72
2021/08/31 06:54:25;;;;;;;3.70;2.07;;;;;;;14.33;92.87;98128.63;2232354;80;20948;-72
2021/08/31 06:57:26;;;;;;;7.63;2.43;;;;;;;14.36;92.87;98132.31;2232084;80;21023;-72
2021/08/31 07:00:28;;;;;;;5.03;1.47;;;;;;;14.40;92.31;98135.03;2232269;80;20944;-72
2021/08/31 07:03:29;;;;;;;4.28;1.87;;;;;;;14.46;91.80;98141.08;2232134;80;20972;-72
2021/08/31 07:06:31;;;;;;;3.07;1.30;;;;;;;14.52;91.05;98143.20;2232277;80;21442;-72
2021/08/31 07:09:32;;;;;;;3.33;1.30;;;;;;;14.65;91.21;98151.37;2232310;80;20976;-69
2021/08/31 07:12:34;;;;;;;6.60;1.77;;;;;;;14.75;90.11;98149.57;2232364;79;20987;-69
2021/08/31 07:15:35;;;;;;;6.63;2.50;;;;;;;14.92;90.93;98150.70;2232600;79;20956;-68
2021/08/31 07:18:36;;;;;;;5.50;2.33;;;;;;;15.28;90.84;98139.60;2232268;80;20967;-70
2021/08/31 07:21:38;;;;;;;5.53;2.50;;;;;;;15.55;90.60;98140.20;2232460;80;20929;-69
2021/08/31 07:24:39;;;;;;;5.13;2.23;;;;;;;15.76;89.31;98136.88;2232299;80;20957;-69
2021/08/31 07:27:41;;;;;;;8.83;2.60;;;;;;;15.69;88.21;98130.49;2232259;80;21518;-69
2021/08/31 07:30:42;;;;;;;4.08;2.25;;;;;;;15.74;90.54;98130.06;2232221;80;20944;-73
2021/08/31 07:33:44;;;;;;;6.27;2.60;;;;;;;15.88;89.61;98130.12;2232283;80;21530;-68
2021/08/31 07:36:46;;;;;;;6.00;2.35;;;;;;;16.09;89.06;98135.19;2231882;80;21019;-68
2021/08/31 07:39:48;;;;;;;6.72;2.72;;;;;;;16.24;88.53;98131.08;2231979;80;21475;-72
2021/08/31 07:42:49;;;;;;;6.77;2.53;;;;;;;16.20;86.23;98136.82;2232413;80;20964;-69
2021/08/31 07:45:50;;;;;;;5.33;2.25;;;;;;;16.25;86.68;98134.08;2232165;80;21027;-73
2021/08/31 07:48:52;;;;;;;9.20;2.80;;;;;;;16.41;88.45;98143.20;2232466;80;20924;-72
2021/08/31 07:51:53;;;;;;;4.78;2.50;;;;;;;16.44;85.93;98146.38;2232182;80;21023;-68
2021/08/31 07:54:55;;;;;;;6.60;2.67;;;;;;;16.42;87.21;98144.85;2232201;79;20988;-69
2021/08/31 07:57:56;;;;;;;9.47;2.90;;;;;;;16.42;85.64;98152.32;2232213;80;20980;-72
2021/08/31 08:00:58;;;;;;;6.17;2.80;;;;;;;16.43;86.38;98160.61;2232279;80;21478;-72
2021/08/31 08:04:00;;;;;;;8.53;3.20;;;;;;;16.51;86.04;98159.05;2232075;80;21039;-73
2021/08/31 08:07:01;;;;;;;9.25;3.70;;;;;;;16.67;86.99;98155.23;2232236;80;21486;-69
2021/08/31 08:10:02;;;;;;;8.27;3.37;;;;;;;17.16;85.82;98157.58;2232548;79;20988;-69
2021/08/31 08:13:04;;;;;;;9.95;3.42;;;;;;;17.28;83.80;98153.72;2232243;80;21004;-69
2021/08/31 08:16:05;;;;;;;11.63;3.60;;;;;;;17.38;84.24;98151.47;2232452;80;20996;-69
2021/08/31 08:19:07;;;;;;;9.20;3.60;;;;;;;18.32;80.94;98151.27;2232408;80;21083;-72
2021/08/31 08:22:08;;;;;;;14.70;3.90;;;;;;;18.32;80.94;98151.27;2232253;80;21877;-73
2021/08/31 08:25:09;;;;;;;10.60;3.67;;;;;;;18.42;81.11;98151.11;2232225;80;20917;-73
2021/08/31 08:28:11;;;;;;;6.47;3.00;;;;;;;18.28;78.90;98143.27;2232073;80;20964;-72
2021/08/31 08:31:12;;;;;;;8.80;3.33;;;;;;;17.92;78.39;98140.78;2232032;80;21574;-72
2021/08/31 08:34:14;;;;;;;6.22;2.90;;;;;;;17.68;77.98;98144.89;2232279;80;20984;-70
2021/08/31 08:37:15;;;;;;;8.18;3.10;;;;;;;17.94;80.37;98137.46;2232101;80;20998;-73
2021/08/31 08:40:17;;;;;;;6.08;2.65;;;;;;;18.48;80.25;98135.89;2232952;79;20979;-73
2021/08/31 08:43:18;;;;;;;6.42;2.80;;;;;;;18.80;76.49;98136.45;2235588;80;20976;-73
2021/08/31 08:46:19;;;;;;;7.28;3.20;;;;;;;18.71;79.06;98132.13;2235596;80;21459;-73
2021/08/31 08:49:21;;;;;;;8.75;2.90;;;;;;;18.77;78.78;98139.44;2235821;80;20998;-74
2021/08/31 08:52:22;;;;;;;5.85;2.77;;;;;;;18.63;76.49;98141.40;2235598;80;20980;-69
2021/08/31 08:55:25;;;;;;;4.97;2.40;;;;;;;18.43;76.60;98144.34;2235703;80;20991;-69
2021/08/31 08:58:27;;;;;;;8.10;2.72;;;;;;;18.40;79.05;98137.18;2235304;80;21514;-73
2021/08/31 09:01:28;;;;;;;7.10;2.77;;;;;;;18.33;79.54;98147.59;2235879;80;20936;-73
2021/08/31 09:04:30;;;;;;;6.60;2.10;;;;;;;18.24;78.66;98150.70;2235567;80;20964;-74
2021/08/31 09:07:31;;;;;;;5.40;2.58;;;;;;;17.95;75.48;98151.07;2235359;79;21028;-69
2021/08/31 09:10:32;;;;;;;13.13;2.80;;;;;;;17.72;76.12;98153.39;2235551;80;21012;-73
2021/08/31 09:13:34;;;;;;;5.05;2.55;;;;;;;17.61;79.35;98157.11;2235599;79;21621;-69
2021/08/31 09:16:35;;;;;;;5.75;2.83;;;;;;;17.50;79.23;98155.55;2235545;80;21055;-73
2021/08/31 09:19:37;;;;;;;8.48;2.67;;;;;;;17.36;80.06;98151.63;2235585;80;21075;-70
2021/08/31 09:22:38;;;;;;;6.62;2.77;;;;;;;17.17;80.60;98157.93;2235536;80;21082;-74
2021/08/31 09:25:39;;;;;;;6.72;2.85;;;;;;;17.03;82.02;98152.66;2235462;80;21023;-74
2021/08/31 09:28:41;;;;;;;7.80;2.20;;;;;;;16.96;84.20;98154.24;2235502;80;21110;-73
2021/08/31 09:31:42;;;;;;;7.03;2.90;;;;;;;16.63;82.40;98169.25;2235678;80;21019;-70
2021/08/31 09:34:44;;;;;;;5.75;2.65;;;;;;;16.45;85.78;98169.73;2235201;80;21118;-70
2021/08/31 09:37:48;;;;;;;5.92;2.52;;;;;;;16.14;84.98;98173.95;2235629;80;20988;-70
2021/08/31 09:40:50;;;;;;;8.53;2.75;;;;;;;15.96;87.21;98175.20;2218706;79;20992;-74
2021/08/31 09:43:51;;;;;;;7.40;2.60;;;;;;;15.92;88.13;98176.47;2245680;79;21032;-74
2021/08/31 09:46:54;;;;;;;8.13;3.00;;;;;;;15.93;87.42;98175.47;2245770;79;21106;-71
2021/08/31 09:49:55;;;;;;;;;;;;;;;15.93;88.91;98172.83;2248512;79;21337;-73
2021/08/31 09:52:57;;;;;;;6.58;2.83;;;;;;;15.87;88.48;98162.83;2245570;79;20143;-74
2021/08/31 09:55:58;;;;;;;6.33;2.63;;;;;;;15.90;88.64;98159.42;2245392;79;21003;-74
2021/08/31 09:58:59;;;;;;;7.17;2.57;;;;;;;16.14;88.52;98159.90;2245782;79;21008;-74
2021/08/31 10:02:01;;;;;;;3.87;2.10;;;;;;;16.23;88.57;98155.90;2245779;79;21929;-69
2021/08/31 10:05:05;;;;;;;5.13;2.27;;;;;;;16.53;87.42;98146.48;2245791;79;21067;-70
2021/08/31 10:08:06;;;;;;;4.78;1.95;;;;;;;16.76;86.43;98152.19;2217141;79;21233;-74
2021/08/31 10:11:07;;;;;;;4.70;2.10;;;;;;;17.13;85.70;98163.19;2245896;79;21566;-73
2021/08/31 10:14:09;;;;;;;6.85;2.17;;;;;;;17.22;84.10;98159.61;2245944;79;21079;-73
2021/08/31 10:17:10;;;;;;;3.67;1.92;;;;;;;17.37;84.56;98168.34;2245784;79;21082;-73
2021/08/31 10:20:12;;;;;;;4.33;1.65;;;;;;;17.65;84.98;98162.45;2245649;79;21094;-69
2021/08/31 10:23:13;;;;;;;5.28;1.75;;;;;;;18.02;81.92;98165.88;2245815;79;21040;-69
2021/08/31 10:26:15;;;;;;;5.55;1.77;;;;;;;18.22;81.02;98169.95;2245865;79;21090;-72
2021/08/31 10:29:16;;;;;;;5.55;2.00;;;;;;;18.24;80.60;98164.48;2245757;79;21071;-70
2021/08/31 10:32:18;;;;;;;5.58;2.30;;;;;;;18.38;79.84;98175.02;2245752;79;21056;-73
2021/08/31 10:35:19;;;;;;;4.22;2.15;;;;;;;18.45;79.55;98168.89;2245791;79;21004;-72
2021/08/31 10:38:20;;;;;;;6.33;2.70;;;;;;;18.55;81.26;98168.77;2245667;79;21530;-69
2021/08/31 10:41:22;;;;;;;10.43;3.10;;;;;;;18.47;80.76;98174.05;2237854;79;21059;-74
2021/08/31 10:44:23;;;;;;;10.95;3.40;;;;;;;18.42;80.93;98174.53;2231784;80;21055;-70
2021/08/31 10:47:25;;;;;;;7.15;3.17;;;;;;;18.40;81.11;98177.82;2232152;80;21050;-69
2021/08/31 10:50:26;;;;;;;7.85;3.00;;;;;;;18.41;80.96;98176.84;2232138;80;20968;-74
2021/08/31 10:53:28;;;;;;;6.45;3.12;;;;;;;18.37;79.87;98180.80;2232212;80;20966;-73
2021/08/31 10:56:29;;;;;;;8.70;3.20;;;;;;;18.32;79.94;98181.28;2231729;80;21027;-69
2021/08/31 10:59:31;;;;;;;9.33;3.17;;;;;;;18.38;80.56;98182.98;2232142;80;21511;-73
2021/08/31 11:02:32;;;;;;;9.25;3.58;;;;;;;18.47;80.29;98182.00;2232272;79;20933;-73
2021/08/31 11:05:34;;;;;;;8.23;3.25;;;;;;;18.46;78.86;98174.55;2232073;80;21020;-70
2021/08/31 11:08:35;;;;;;;9.70;3.60;;;;;;;18.53;80.56;98174.25;2232144;80;20972;-70
2021/08/31 11:11:37;;;;;;;8.05;3.50;;;;;;;18.68;79.47;98173.13;2232039;80;20992;-73
2021/08/31 11:14:38;;;;;;;9.35;3.27;;;;;;;18.91;79.49;98155.28;2232149;80;20964;-73
2021/08/31 11:17:41;;;;;;;7.17;2.80;;;;;;;18.89;77.09;98177.69;2231969;80;20992;-73
2021/08/31 11:20:45;;;;;;;6.08;2.83;;;;;;;18.89;77.09;98177.69;2232024;80;20968;-71
2021/08/31 11:23:46;;;;;;;7.10;2.70;;;;;;;19.00;77.80;98160.11;2212434;80;21003;-72
2021/08/31 11:26:47;;;;;;;6.53;2.90;;;;;;;19.19;76.40;98161.15;2232064;80;21034;-70
2021/08/31 11:29:49;;;;;;;8.85;3.10;;;;;;;19.42;75.50;98155.66;2232229;80;20984;-74
2021/08/31 11:32:50;;;;;;;6.28;2.65;;;;;;;19.61;75.24;98154.48;2232126;80;20932;-74
2021/08/31 11:35:52;;;;;;;8.38;3.08;;;;;;;19.52;74.17;98149.67;2232095;79;21463;-70
2021/08/31 11:38:53;;;;;;;6.22;2.72;;;;;;;19.57;74.81;98167.30;2232122;80;20972;-70
2021/08/31 11:41:55;;;;;;;7.83;3.40;;;;;;;19.62;74.50;98158.30;2233879;80;21700;-72
2021/08/31 11:44:56;;;;;;;7.37;3.05;;;;;;;19.76;76.89;98169.28;2235602;80;20999;-69
2021/08/31 11:47:58;;;;;;;8.48;3.20;;;;;;;20.10;76.09;98167.75;2235465;80;21035;-69
2021/08/31 11:50:59;;;;;;;7.03;3.15;;;;;;;20.30;71.58;98176.17;2235893;80;20986;-69
2021/08/31 11:54:01;;;;;;;9.15;3.60;;;;;;;20.47;72.38;98182.25;2235667;80;20988;-70
2021/08/31 11:57:02;;;;;;;10.75;3.35;;;;;;;20.48;70.75;98194.56;2235553;80;21035;-70
2021/08/31 12:00:05;;;;;;;8.00;3.30;;;;;;;19.83;69.55;98194.25;2235643;80;20948;-73
2021/08/31 12:03:07;;;;;;;7.97;3.15;;;;;;;19.61;72.62;98203.20;2235660;80;20936;-69
2021/08/31 12:06:08;;;;;;;7.87;2.80;;;;;;;19.56;71.75;98196.22;2235585;80;21004;-73
2021/08/31 12:09:10;;;;;;;7.00;2.90;;;;;;;19.65;71.61;98189.91;2235697;79;21003;-74
2021/08/31 12:12:11;;;;;;;6.20;2.83;;;;;;;20.41;71.55;98198.92;2235641;80;20940;-73
2021/08/31 12:15:14;;;;;;;8.30;3.08;;;;;;;20.62;68.88;98203.68;2235649;80;21518;-70
2021/08/31 12:18:15;;;;;;;7.35;3.08;;;;;;;20.78;67.81;98208.64;2235361;80;21015;-74
2021/08/31 12:21:17;;;;;;;8.85;3.00;;;;;;;20.49;68.76;98206.89;2235638;80;21011;-69
2021/08/31 12:24:18;;;;;;;8.33;3.15;;;;;;;20.08;68.73;98214.98;2235636;80;21868;-70
2021/08/31 12:27:20;;;;;;;7.87;3.10;;;;;;;19.65;70.53;98201.03;2235596;80;21015;-73
2021/08/31 12:30:21;;;;;;;9.38;3.40;;;;;;;19.34;70.45;98203.03;2235648;80;20971;-74
2021/08/31 12:33:23;;;;;;;8.98;3.22;;;;;;;19.36;72.88;98198.37;2235731;80;20971;-73
2021/08/31 12:36:25;;;;;;;;;;;;;;;19.44;72.37;98197.05;2237971;80;21011;-69
2021/08/31 12:39:27;;;;;;;8.60;2.95;;;;;;;19.24;72.04;98203.66;2235899;80;20094;-74
2021/08/31 12:42:29;;;;;;;8.38;3.10;;;;;;;18.98;72.37;98212.61;2232622;79;21543;-75
2021/08/31 12:45:30;;;;;;;8.00;3.00;;;;;;;18.93;72.32;98213.07;2232216;80;20995;-69
2021/08/31 12:48:32;;;;;;;7.00;2.77;;;;;;;19.39;72.76;98210.00;2231801;80;21111;-73
2021/08/31 12:51:34;;;;;;;7.12;3.00;;;;;;;19.81;72.33;98210.86;2232125;80;21518;-70
2021/08/31 12:54:35;;;;;;;6.97;2.77;;;;;;;19.63;69.53;98211.02;2232112;80;21036;-68
2021/08/31 12:57:37;;;;;;;8.50;2.90;;;;;;;19.30;70.84;98198.53;2232061;80;21545;-69
2021/08/31 13:00:38;;;;;;;8.43;2.90;;;;;;;19.18;72.66;98197.20;2232095;80;20968;-74
2021/08/31 13:03:40;;;;;;;7.08;2.77;;;;;;;19.29;72.92;98186.73;2232000;80;21471;-73
2021/08/31 13:06:43;;;;;;;5.85;2.92;;;;;;;19.87;72.59;98188.41;2232241;80;20972;-75
2021/08/31 13:09:44;;;;;;;7.00;2.98;;;;;;;20.16;71.06;98203.51;2232234;80;20980;-69
2021/08/31 13:12:46;;;;;;;6.72;2.72;;;;;;;20.02;70.92;98206.35;2232221;80;20969;-69
2021/08/31 13:15:48;;;;;;;4.85;2.45;;;;;;;19.72;70.31;98200.70;2232056;80;20991;-73
2021/08/31 13:18:49;;;;;;;9.15;2.67;;;;;;;19.82;69.84;98200.56;2232109;80;20999;-75
2021/08/31 13:21:51;;;;;;;7.30;2.60;;;;;;;20.50;69.79;98196.58;2232122;80;21505;-73
2021/08/31 13:24:52;;;;;;;7.42;2.40;;;;;;;20.57;69.28;98186.89;2232225;80;21265;-73
2021/08/31 13:27:53;;;;;;;7.55;2.65;;;;;;;20.47;69.04;98192.08;2232082;80;20986;-70
2021/08/31 13:30:55;;;;;;;4.22;2.30;;;;;;;20.35;69.53;98198.29;2232120;80;21046;-73
2021/08/31 13:33:56;;;;;;;6.40;2.50;;;;;;;19.88;67.94;98195.41;2232097;80;20964;-74
2021/08/31 13:36:58;;;;;;;7.53;2.65;;;;;;;20.29;69.25;98182.49;2232076;79;21435;-69
2021/08/31 13:40:00;;;;;;;4.22;2.30;;;;;;;20.60;67.66;98181.70;2231597;80;21474;-74
2021/08/31 13:43:01;;;;;;;5.75;2.40;;;;;;;20.08;67.65;98196.35;2231768;80;21030;-74
2021/08/31 13:46:03;;;;;;;7.20;2.37;;;;;;;19.37;69.58;98191.55;2232052;80;20968;-72
2021/08/31 13:49:04;;;;;;;6.55;2.05;;;;;;;19.07;71.30;98190.86;2232225;80;21042;-70
2021/08/31 13:52:06;;;;;;;6.60;2.70;;;;;;;18.95;71.74;98181.87;2232093;80;20956;-69
2021/08/31 13:55:07;;;;;;;3.83;2.25;;;;;;;18.91;72.86;98186.34;2232082;80;21482;-69
2021/08/31 13:58:12;;;;;;;6.53;2.37;;;;;;;18.79;73.55;98207.02;2231928;80;20957;-69
2021/08/31 14:01:12;;;;;;;6.22;2.60;;;;;;;18.65;74.81;98189.38;2212474;80;20976;-74
2021/08/31 14:04:14;;;;;;;4.03;2.08;;;;;;;18.65;74.71;98192.55;2232194;80;21447;-70
2021/08/31 14:07:17;;;;;;;8.08;3.00;;;;;;;18.60;75.09;98185.55;2231752;80;21036;-70
2021/08/31 14:10:18;;;;;;;7.00;2.08;;;;;;;18.62;75.44;98191.03;2232261;80;21459;-70
2021/08/31 14:13:19;;;;;;;3.52;2.10;;;;;;;18.69;75.85;98184.56;2232274;79;20937;-73